sensor_id;sensor_type;location;lat;lon;timestamp;pressure;altitude;pressure_sealevel;temperature;humidity
67099;BME280;54288;53.046;5.668;2022-12-16T00:01:54;101169.88;;;0.15;100.00
67099;BME280;54288;53.046;5.668;2022-12-16T00:04:20;101207.25;;;0.34;100.00
67099;BME280;54288;53.046;5.668;2022-12-16T00:06:46;101194.66;;;0.12;100.00
67099;BME280;54288;53.046;5.668;2022-12-16T00:09:12;101184.06;;;0.01;100.00
67099;BME280;54288;53.046;5.668;2022-12-16T00:11:37;101200.19;;;-0.06;100.00
67099;BME280;54288;53.046;5.668;2022-12-16T00:14:03;101190.50;;;-0.14;100.00
67099;BME280;54288;53.046;5.668;2022-12-16T00:16:32;101179.00;;;-0.27;100.00
67099;BME280;54288;53.046;5.668;2022-12-16T00:18:58;101223.91;;;-0.16;100.00
67099;BME280;54288;53.046;5.668;2022-12-16T00:21:24;101202.97;;;-0.28;100.00
67099;BME280;54288;53.046;5.668;2022-12-16T00:23:55;101208.84;;;-0.33;100.00
67099;BME280;54288;53.046;5.668;2022-12-16T00:26:21;101170.41;;;-0.56;100.00
67099;BME280;54288;53.046;5.668;2022-12-16T00:28:47;101185.13;;;-0.52;100.00
67099;BME280;54288;53.046;5.668;2022-12-16T00:31:18;101197.09;;;-0.53;100.00
67099;BME280;54288;53.046;5.668;2022-12-16T00:33:44;101205.41;;;-0.61;100.00
67099;BME280;54288;53.046;5.668;2022-12-16T00:36:10;101186.72;;;-0.84;100.00
67099;BME280;54288;53.046;5.668;2022-12-16T00:38:37;101198.81;;;-0.80;100.00
67099;BME280;54288;53.046;5.668;2022-12-16T00:41:03;101198.94;;;-0.77;100.00
67099;BME280;54288;53.046;5.668;2022-12-16T00:43:29;101188.28;;;-0.89;100.00
67099;BME280;54288;53.046;5.668;2022-12-16T00:45:54;101210.91;;;-0.77;100.00
67099;BME280;54288;53.046;5.668;2022-12-16T00:48:21;101191.53;;;-0.94;100.00
67099;BME280;54288;53.046;5.668;2022-12-16T00:50:52;101195.44;;;-1.05;100.00
67099;BME280;54288;53.046;5.668;2022-12-16T00:53:19;101198.91;;;-1.05;100.00
67099;BME280;54288;53.046;5.668;2022-12-16T00:55:45;101221.44;;;-0.96;100.00
67099;BME280;54288;53.046;5.668;2022-12-16T00:58:12;101218.09;;;-0.94;100.00
67099;BME280;54288;53.046;5.668;2022-12-16T01:00:38;101220.34;;;-1.04;100.00
67099;BME280;54288;53.046;5.668;2022-12-16T01:03:05;101237.66;;;-0.99;100.00
67099;BME280;54288;53.046;5.668;2022-12-16T01:05:31;101235.72;;;-1.06;100.00
67099;BME280;54288;53.046;5.668;2022-12-16T01:07:57;101217.28;;;-1.19;100.00
67099;BME280;54288;53.046;5.668;2022-12-16T01:10:24;101204.13;;;-1.28;100.00
67099;BME280;54288;53.046;5.668;2022-12-16T01:12:51;101203.94;;;-1.34;100.00
67099;BME280;54288;53.046;5.668;2022-12-16T01:15:18;101240.53;;;-1.16;100.00
67099;BME280;54288;53.046;5.668;2022-12-16T01:17:45;101247.94;;;-0.99;100.00
67099;BME280;54288;53.046;5.668;2022-12-16T01:20:11;101219.22;;;-1.12;100.00
67099;BME280;54288;53.046;5.668;2022-12-16T01:22:38;101249.66;;;-0.98;100.00
67099;BME280;54288;53.046;5.668;2022-12-16T01:25:05;101225.81;;;-1.20;100.00
67099;BME280;54288;53.046;5.668;2022-12-16T01:27:31;101226.53;;;-1.24;100.00
67099;BME280;54288;53.046;5.668;2022-12-16T01:29:57;101238.28;;;-1.31;100.00
67099;BME280;54288;53.046;5.668;2022-12-16T01:32:23;101271.19;;;-1.21;100.00
67099;BME280;54288;53.046;5.668;2022-12-16T01:34:52;101254.28;;;-1.39;100.00
67099;BME280;54288;53.046;5.668;2022-12-16T01:37:18;101259.72;;;-1.30;100.00
67099;BME280;54288;53.046;5.668;2022-12-16T01:39:45;101270.22;;;-1.24;100.00
67099;BME280;54288;53.046;5.668;2022-12-16T01:42:15;101274.69;;;-1.19;100.00
67099;BME280;54288;53.046;5.668;2022-12-16T01:44:43;101247.50;;;-1.37;100.00
67099;BME280;54288;53.046;5.668;2022-12-16T01:47:25;101252.84;;;-1.31;100.00
67099;BME280;54288;53.046;5.668;2022-12-16T01:50:09;101289.53;;;-1.10;100.00
67099;BME280;54288;53.046;5.668;2022-12-16T01:52:42;101298.09;;;-1.10;100.00
67099;BME280;54288;53.046;5.668;2022-12-16T01:55:17;101261.66;;;-1.25;100.00
67099;BME280;54288;53.046;5.668;2022-12-16T01:57:53;101294.69;;;-1.10;100.00
67099;BME280;54288;53.046;5.668;2022-12-16T02:00:20;101272.16;;;-1.17;100.00
67099;BME280;54288;53.046;5.668;2022-12-16T02:02:49;101302.47;;;-1.07;100.00
67099;BME280;54288;53.046;5.668;2022-12-16T02:05:18;101290.38;;;-1.10;100.00
67099;BME280;54288;53.046;5.668;2022-12-16T02:41:00;101315.44;;;-1.76;100.00
67099;BME280;54288;53.046;5.668;2022-12-16T02:43:52;101311.22;;;-1.76;100.00
67099;BME280;54288;53.046;5.668;2022-12-16T02:46:23;101292.69;;;-1.91;100.00
67099;BME280;54288;53.046;5.668;2022-12-16T02:48:50;101326.53;;;-1.77;100.00
67099;BME280;54288;53.046;5.668;2022-12-16T02:51:17;101313.84;;;-1.96;100.00
67099;BME280;54288;53.046;5.668;2022-12-16T02:53:45;101306.75;;;-2.03;100.00
67099;BME280;54288;53.046;5.668;2022-12-16T02:56:47;101332.31;;;-1.83;100.00
67099;BME280;54288;53.046;5.668;2022-12-16T03:04:47;101337.13;;;-1.92;100.00
67099;BME280;54288;53.046;5.668;2022-12-16T03:07:19;101333.59;;;-1.94;100.00
67099;BME280;54288;53.046;5.668;2022-12-16T03:09:50;101333.91;;;-2.08;100.00
67099;BME280;54288;53.046;5.668;2022-12-16T03:12:20;101324.31;;;-2.14;100.00
67099;BME280;54288;53.046;5.668;2022-12-16T03:14:51;101341.03;;;-2.01;100.00
67099;BME280;54288;53.046;5.668;2022-12-16T03:17:21;101349.50;;;-2.04;100.00
67099;BME280;54288;53.046;5.668;2022-12-16T03:20:06;101333.69;;;-2.14;100.00
67099;BME280;54288;53.046;5.668;2022-12-16T03:22:39;101327.09;;;-2.08;100.00
67099;BME280;54288;53.046;5.668;2022-12-16T03:25:08;101340.97;;;-2.03;100.00
67099;BME280;54288;53.046;5.668;2022-12-16T03:28:05;101336.00;;;-1.98;100.00
67099;BME280;54288;53.046;5.668;2022-12-16T03:30:41;101332.41;;;-2.03;100.00
67099;BME280;54288;53.046;5.668;2022-12-16T03:33:25;101320.09;;;-2.12;100.00
67099;BME280;54288;53.046;5.668;2022-12-16T03:35:59;101330.44;;;-2.10;100.00
67099;BME280;54288;53.046;5.668;2022-12-16T03:38:27;101338.41;;;-2.03;100.00
67099;BME280;54288;53.046;5.668;2022-12-16T03:40:56;101351.56;;;-1.94;100.00
67099;BME280;54288;53.046;5.668;2022-12-16T03:43:24;101356.66;;;-1.95;100.00
67099;BME280;54288;53.046;5.668;2022-12-16T03:45:55;101354.31;;;-1.89;100.00
67099;BME280;54288;53.046;5.668;2022-12-16T03:48:24;101341.28;;;-1.95;100.00
67099;BME280;54288;53.046;5.668;2022-12-16T03:50:50;101377.22;;;-1.72;100.00
67099;BME280;54288;53.046;5.668;2022-12-16T03:53:17;101360.59;;;-1.81;100.00
67099;BME280;54288;53.046;5.668;2022-12-16T03:55:43;101381.25;;;-1.78;100.00
67099;BME280;54288;53.046;5.668;2022-12-16T03:58:09;101382.19;;;-1.76;100.00
67099;BME280;54288;53.046;5.668;2022-12-16T04:00:35;101358.25;;;-1.99;100.00
67099;BME280;54288;53.046;5.668;2022-12-16T04:03:01;101369.38;;;-1.98;100.00
67099;BME280;54288;53.046;5.668;2022-12-16T04:05:27;101384.75;;;-1.98;100.00
67099;BME280;54288;53.046;5.668;2022-12-16T04:07:53;101360.97;;;-2.16;100.00
67099;BME280;54288;53.046;5.668;2022-12-16T04:10:19;101381.72;;;-2.10;100.00
67099;BME280;54288;53.046;5.668;2022-12-16T04:13:06;101395.72;;;-2.02;100.00
67099;BME280;54288;53.046;5.668;2022-12-16T04:15:51;101363.66;;;-2.13;100.00
67099;BME280;54288;53.046;5.668;2022-12-16T04:18:35;101375.19;;;-2.02;100.00
67099;BME280;54288;53.046;5.668;2022-12-16T04:21:20;101392.81;;;-1.89;100.00
67099;BME280;54288;53.046;5.668;2022-12-16T04:24:13;101411.84;;;-1.84;100.00
67099;BME280;54288;53.046;5.668;2022-12-16T04:26:44;101379.63;;;-1.98;100.00
67099;BME280;54288;53.046;5.668;2022-12-16T04:29:29;101391.84;;;-1.93;100.00
67099;BME280;54288;53.046;5.668;2022-12-16T04:31:56;101411.41;;;-1.73;100.00
67099;BME280;54288;53.046;5.668;2022-12-16T04:34:23;101399.34;;;-1.75;100.00
67099;BME280;54288;53.046;5.668;2022-12-16T04:36:58;101388.91;;;-1.80;100.00
67099;BME280;54288;53.046;5.668;2022-12-16T04:39:44;101399.56;;;-1.69;100.00
67099;BME280;54288;53.046;5.668;2022-12-16T04:42:29;101394.59;;;-1.65;100.00
67099;BME280;54288;53.046;5.668;2022-12-16T04:45:14;101416.34;;;-1.55;100.00
67099;BME280;54288;53.046;5.668;2022-12-16T04:47:58;101398.63;;;-1.71;100.00
67099;BME280;54288;53.046;5.668;2022-12-16T04:50:44;101417.97;;;-1.57;100.00
67099;BME280;54288;53.046;5.668;2022-12-16T04:53:29;101429.06;;;-1.58;100.00
67099;BME280;54288;53.046;5.668;2022-12-16T04:56:13;101397.72;;;-1.73;100.00
67099;BME280;54288;53.046;5.668;2022-12-16T04:58:58;101390.81;;;-1.74;100.00
67099;BME280;54288;53.046;5.668;2022-12-16T05:01:42;101407.63;;;-1.60;100.00
67099;BME280;54288;53.046;5.668;2022-12-16T05:04:27;101399.78;;;-1.63;100.00
67099;BME280;54288;53.046;5.668;2022-12-16T05:07:11;101398.25;;;-1.58;100.00
67099;BME280;54288;53.046;5.668;2022-12-16T05:09:56;101435.00;;;-1.37;100.00
67099;BME280;54288;53.046;5.668;2022-12-16T05:12:40;101419.03;;;-1.52;100.00
67099;BME280;54288;53.046;5.668;2022-12-16T05:15:25;101441.75;;;-1.39;100.00
67099;BME280;54288;53.046;5.668;2022-12-16T05:18:14;101443.53;;;-1.38;100.00
67099;BME280;54288;53.046;5.668;2022-12-16T05:21:01;101449.38;;;-1.42;100.00
67099;BME280;54288;53.046;5.668;2022-12-16T05:23:46;101406.34;;;-1.71;100.00
67099;BME280;54288;53.046;5.668;2022-12-16T05:26:31;101416.78;;;-1.67;100.00
67099;BME280;54288;53.046;5.668;2022-12-16T05:29:16;101419.25;;;-1.68;100.00
67099;BME280;54288;53.046;5.668;2022-12-16T05:32:00;101429.75;;;-1.62;100.00
67099;BME280;54288;53.046;5.668;2022-12-16T05:34:44;101415.50;;;-1.78;100.00
67099;BME280;54288;53.046;5.668;2022-12-16T05:37:29;101450.38;;;-1.61;100.00
67099;BME280;54288;53.046;5.668;2022-12-16T05:40:13;101442.66;;;-1.61;100.00
67099;BME280;54288;53.046;5.668;2022-12-16T05:42:58;101447.03;;;-1.58;100.00
67099;BME280;54288;53.046;5.668;2022-12-16T05:45:42;101427.78;;;-1.69;100.00
67099;BME280;54288;53.046;5.668;2022-12-16T05:48:26;101461.59;;;-1.59;100.00
67099;BME280;54288;53.046;5.668;2022-12-16T05:51:12;101414.50;;;-1.81;100.00
67099;BME280;54288;53.046;5.668;2022-12-16T05:53:57;101438.00;;;-1.71;100.00
67099;BME280;54288;53.046;5.668;2022-12-16T05:56:41;101444.03;;;-1.70;100.00
67099;BME280;54288;53.046;5.668;2022-12-16T05:59:26;101462.34;;;-1.61;100.00
67099;BME280;54288;53.046;5.668;2022-12-16T06:02:10;101436.78;;;-1.80;100.00
67099;BME280;54288;53.046;5.668;2022-12-16T06:04:55;101455.22;;;-1.68;100.00
67099;BME280;54288;53.046;5.668;2022-12-16T06:07:39;101458.38;;;-1.75;100.00
67099;BME280;54288;53.046;5.668;2022-12-16T06:10:23;101465.59;;;-1.65;100.00
67099;BME280;54288;53.046;5.668;2022-12-16T06:13:08;101474.00;;;-1.69;100.00
67099;BME280;54288;53.046;5.668;2022-12-16T06:15:52;101447.41;;;-1.93;100.00
67099;BME280;54288;53.046;5.668;2022-12-16T06:18:36;101476.75;;;-1.87;100.00
67099;BME280;54288;53.046;5.668;2022-12-16T06:21:21;101480.31;;;-1.83;100.00
67099;BME280;54288;53.046;5.668;2022-12-16T06:24:05;101465.38;;;-1.93;100.00
67099;BME280;54288;53.046;5.668;2022-12-16T06:26:49;101474.63;;;-1.97;100.00
67099;BME280;54288;53.046;5.668;2022-12-16T06:29:33;101501.53;;;-1.87;100.00
67099;BME280;54288;53.046;5.668;2022-12-16T06:32:18;101476.56;;;-1.91;100.00
67099;BME280;54288;53.046;5.668;2022-12-16T06:35:02;101474.97;;;-1.88;100.00
67099;BME280;54288;53.046;5.668;2022-12-16T06:37:47;101489.75;;;-1.82;100.00
67099;BME280;54288;53.046;5.668;2022-12-16T06:40:31;101502.69;;;-1.79;100.00
67099;BME280;54288;53.046;5.668;2022-12-16T06:43:15;101508.31;;;-1.89;100.00
67099;BME280;54288;53.046;5.668;2022-12-16T06:45:59;101496.16;;;-1.93;100.00
67099;BME280;54288;53.046;5.668;2022-12-16T06:48:43;101488.91;;;-2.03;100.00
67099;BME280;54288;53.046;5.668;2022-12-16T06:51:28;101502.78;;;-1.98;100.00
67099;BME280;54288;53.046;5.668;2022-12-16T06:54:11;101516.50;;;-1.98;100.00
67099;BME280;54288;53.046;5.668;2022-12-16T06:56:56;101505.94;;;-2.05;100.00
67099;BME280;54288;53.046;5.668;2022-12-16T06:59:40;101519.63;;;-2.05;100.00
67099;BME280;54288;53.046;5.668;2022-12-16T07:02:24;101528.88;;;-2.08;100.00
67099;BME280;54288;53.046;5.668;2022-12-16T07:05:08;101535.22;;;-2.00;100.00
67099;BME280;54288;53.046;5.668;2022-12-16T07:07:52;101539.28;;;-2.05;100.00
67099;BME280;54288;53.046;5.668;2022-12-16T07:10:37;101532.94;;;-2.13;100.00
67099;BME280;54288;53.046;5.668;2022-12-16T07:13:21;101551.19;;;-2.07;100.00
67099;BME280;54288;53.046;5.668;2022-12-16T07:16:06;101549.41;;;-2.08;100.00
67099;BME280;54288;53.046;5.668;2022-12-16T07:18:50;101558.25;;;-2.02;100.00
67099;BME280;54288;53.046;5.668;2022-12-16T07:21:34;101558.63;;;-1.93;100.00
67099;BME280;54288;53.046;5.668;2022-12-16T07:24:18;101564.94;;;-1.85;100.00
67099;BME280;54288;53.046;5.668;2022-12-16T07:27:03;101555.56;;;-1.84;100.00
67099;BME280;54288;53.046;5.668;2022-12-16T07:29:47;101563.56;;;-1.97;100.00
67099;BME280;54288;53.046;5.668;2022-12-16T07:32:31;101573.97;;;-1.94;100.00
67099;BME280;54288;53.046;5.668;2022-12-16T07:35:16;101580.97;;;-1.90;100.00
67099;BME280;54288;53.046;5.668;2022-12-16T07:38:00;101567.88;;;-1.96;100.00
67099;BME280;54288;53.046;5.668;2022-12-16T07:40:44;101595.56;;;-1.89;100.00
67099;BME280;54288;53.046;5.668;2022-12-16T07:43:28;101587.59;;;-1.95;100.00
67099;BME280;54288;53.046;5.668;2022-12-16T07:46:12;101597.97;;;-1.92;100.00
67099;BME280;54288;53.046;5.668;2022-12-16T07:48:57;101594.56;;;-1.93;100.00
67099;BME280;54288;53.046;5.668;2022-12-16T07:51:41;101604.44;;;-1.81;100.00
67099;BME280;54288;53.046;5.668;2022-12-16T07:54:25;101601.19;;;-1.77;100.00
67099;BME280;54288;53.046;5.668;2022-12-16T07:57:09;101602.59;;;-1.63;100.00
67099;BME280;54288;53.046;5.668;2022-12-16T07:59:54;101596.38;;;-1.70;100.00
67099;BME280;54288;53.046;5.668;2022-12-16T08:02:38;101603.25;;;-1.69;100.00
67099;BME280;54288;53.046;5.668;2022-12-16T08:05:22;101623.38;;;-1.57;100.00
67099;BME280;54288;53.046;5.668;2022-12-16T08:08:06;101626.59;;;-1.63;100.00
67099;BME280;54288;53.046;5.668;2022-12-16T08:10:51;101625.53;;;-1.68;100.00
67099;BME280;54288;53.046;5.668;2022-12-16T08:13:35;101632.66;;;-1.61;100.00
67099;BME280;54288;53.046;5.668;2022-12-16T08:16:19;101641.34;;;-1.57;100.00
67099;BME280;54288;53.046;5.668;2022-12-16T08:19:03;101651.63;;;-1.57;100.00
67099;BME280;54288;53.046;5.668;2022-12-16T08:21:47;101650.81;;;-1.56;100.00
67099;BME280;54288;53.046;5.668;2022-12-16T08:24:31;101649.06;;;-1.57;100.00
67099;BME280;54288;53.046;5.668;2022-12-16T08:27:15;101650.94;;;-1.53;100.00
67099;BME280;54288;53.046;5.668;2022-12-16T08:29:59;101641.34;;;-1.57;100.00
67099;BME280;54288;53.046;5.668;2022-12-16T08:32:43;101661.03;;;-1.37;100.00
67099;BME280;54288;53.046;5.668;2022-12-16T08:35:27;101657.63;;;-1.36;100.00
67099;BME280;54288;53.046;5.668;2022-12-16T08:38:11;101659.38;;;-1.35;100.00
67099;BME280;54288;53.046;5.668;2022-12-16T08:40:56;101658.47;;;-1.37;100.00
67099;BME280;54288;53.046;5.668;2022-12-16T08:43:40;101658.69;;;-1.31;100.00
67099;BME280;54288;53.046;5.668;2022-12-16T08:46:24;101656.25;;;-1.28;100.00
67099;BME280;54288;53.046;5.668;2022-12-16T08:49:21;101678.97;;;-1.17;100.00
67099;BME280;54288;53.046;5.668;2022-12-16T08:52:06;101671.38;;;-1.14;100.00
67099;BME280;54288;53.046;5.668;2022-12-16T08:54:50;101674.97;;;-1.10;100.00
67099;BME280;54288;53.046;5.668;2022-12-16T08:57:35;101664.56;;;-1.13;100.00
67099;BME280;54288;53.046;5.668;2022-12-16T09:00:19;101684.66;;;-1.03;100.00
67099;BME280;54288;53.046;5.668;2022-12-16T09:03:03;101685.59;;;-1.01;100.00
67099;BME280;54288;53.046;5.668;2022-12-16T09:05:48;101675.22;;;-1.04;100.00
67099;BME280;54288;53.046;5.668;2022-12-16T09:08:32;101698.16;;;-0.87;100.00
67099;BME280;54288;53.046;5.668;2022-12-16T09:11:16;101675.31;;;-1.01;100.00
67099;BME280;54288;53.046;5.668;2022-12-16T09:14:00;101693.75;;;-0.91;100.00
67099;BME280;54288;53.046;5.668;2022-12-16T09:16:45;101701.03;;;-0.79;100.00
67099;BME280;54288;53.046;5.668;2022-12-16T09:19:29;101708.09;;;-0.74;100.00
67099;BME280;54288;53.046;5.668;2022-12-16T09:22:14;101721.66;;;-0.56;100.00
67099;BME280;54288;53.046;5.668;2022-12-16T09:24:58;101730.53;;;-0.48;100.00
67099;BME280;54288;53.046;5.668;2022-12-16T09:27:42;101735.06;;;-0.42;100.00
67099;BME280;54288;53.046;5.668;2022-12-16T09:30:27;101704.28;;;-0.61;100.00
67099;BME280;54288;53.046;5.668;2022-12-16T09:33:11;101753.06;;;-0.42;100.00
67099;BME280;54288;53.046;5.668;2022-12-16T09:35:56;101753.91;;;-0.42;100.00
67099;BME280;54288;53.046;5.668;2022-12-16T09:38:40;101723.75;;;-0.46;100.00
67099;BME280;54288;53.046;5.668;2022-12-16T09:45:01;101734.69;;;-0.29;100.00
67099;BME280;54288;53.046;5.668;2022-12-16T09:50:52;101768.34;;;-0.02;100.00
67099;BME280;54288;53.046;5.668;2022-12-16T09:53:41;101750.72;;;-0.13;100.00
67099;BME280;54288;53.046;5.668;2022-12-16T09:56:31;101748.16;;;-0.13;100.00
67099;BME280;54288;53.046;5.668;2022-12-16T09:59:32;101750.09;;;-0.08;100.00
67099;BME280;54288;53.046;5.668;2022-12-16T10:02:19;101755.34;;;-0.05;100.00
67099;BME280;54288;53.046;5.668;2022-12-16T10:05:11;101734.88;;;-0.02;100.00
67099;BME280;54288;53.046;5.668;2022-12-16T10:08:13;101779.59;;;0.25;100.00
67099;BME280;54288;53.046;5.668;2022-12-16T10:11:14;101735.84;;;0.02;100.00
67099;BME280;54288;53.046;5.668;2022-12-16T10:14:16;101785.00;;;0.31;100.00
67099;BME280;54288;53.046;5.668;2022-12-16T10:17:25;101756.94;;;0.15;100.00
67099;BME280;54288;53.046;5.668;2022-12-16T10:20:29;101738.91;;;0.15;100.00
67099;BME280;54288;53.046;5.668;2022-12-16T10:23:28;101753.06;;;0.26;100.00
67099;BME280;54288;53.046;5.668;2022-12-16T10:29:25;101784.88;;;0.52;100.00
67099;BME280;54288;53.046;5.668;2022-12-16T10:32:18;101782.31;;;0.53;100.00
67099;BME280;54288;53.046;5.668;2022-12-16T10:35:28;101757.31;;;0.51;100.00
67099;BME280;54288;53.046;5.668;2022-12-16T10:38:50;101782.72;;;0.64;100.00
67099;BME280;54288;53.046;5.668;2022-12-16T10:41:44;101749.59;;;0.51;100.00
67099;BME280;54288;53.046;5.668;2022-12-16T10:44:54;101768.28;;;0.69;100.00
67099;BME280;54288;53.046;5.668;2022-12-16T10:47:41;101768.09;;;0.64;100.00
67099;BME280;54288;53.046;5.668;2022-12-16T10:50:25;101766.50;;;0.68;100.00
67099;BME280;54288;53.046;5.668;2022-12-16T10:53:14;101767.78;;;0.80;100.00
67099;BME280;54288;53.046;5.668;2022-12-16T10:59:06;101752.44;;;0.83;100.00
67099;BME280;54288;53.046;5.668;2022-12-16T11:02:00;101745.31;;;0.76;100.00
67099;BME280;54288;53.046;5.668;2022-12-16T11:04:46;101730.78;;;0.78;100.00
67099;BME280;54288;53.046;5.668;2022-12-16T11:07:38;101780.97;;;1.14;100.00
67099;BME280;54288;53.046;5.668;2022-12-16T11:10:39;101769.09;;;1.19;100.00
67099;BME280;54288;53.046;5.668;2022-12-16T11:16:27;101759.16;;;1.31;100.00
67099;BME280;54288;53.046;5.668;2022-12-16T11:19:26;101779.38;;;1.46;100.00
67099;BME280;54288;53.046;5.668;2022-12-16T11:22:20;101769.59;;;1.34;100.00
67099;BME280;54288;53.046;5.668;2022-12-16T11:25:19;101769.22;;;1.24;100.00
67099;BME280;54288;53.046;5.668;2022-12-16T11:28:04;101778.94;;;1.31;100.00
67099;BME280;54288;53.046;5.668;2022-12-16T11:30:55;101775.34;;;1.27;100.00
67099;BME280;54288;53.046;5.668;2022-12-16T11:33:43;101795.66;;;1.43;100.00
67099;BME280;54288;53.046;5.668;2022-12-16T11:36:31;101780.81;;;1.36;100.00
67099;BME280;54288;53.046;5.668;2022-12-16T11:39:19;101771.03;;;1.26;100.00
67099;BME280;54288;53.046;5.668;2022-12-16T11:42:11;101792.09;;;1.40;100.00
67099;BME280;54288;53.046;5.668;2022-12-16T11:45:14;101754.41;;;1.17;100.00
67099;BME280;54288;53.046;5.668;2022-12-16T11:48:16;101774.31;;;1.21;100.00
67099;BME280;54288;53.046;5.668;2022-12-16T11:51:13;101804.03;;;1.36;100.00
67099;BME280;54288;53.046;5.668;2022-12-16T11:54:34;101779.53;;;1.22;100.00
67099;BME280;54288;53.046;5.668;2022-12-16T11:57:30;101775.22;;;1.23;100.00
67099;BME280;54288;53.046;5.668;2022-12-16T12:00:18;101793.59;;;1.32;100.00
67099;BME280;54288;53.046;5.668;2022-12-16T12:03:11;101793.00;;;1.40;100.00
67099;BME280;54288;53.046;5.668;2022-12-16T12:09:22;101790.25;;;1.36;100.00
67099;BME280;54288;53.046;5.668;2022-12-16T12:15:24;101784.56;;;1.46;100.00
67099;BME280;54288;53.046;5.668;2022-12-16T12:21:11;101802.84;;;1.53;100.00
67099;BME280;54288;53.046;5.668;2022-12-16T12:36:26;101828.84;;;1.59;100.00
67099;BME280;54288;53.046;5.668;2022-12-16T12:39:33;101825.84;;;1.46;100.00
67099;BME280;54288;53.046;5.668;2022-12-16T12:57:08;101824.59;;;1.60;100.00
67099;BME280;54288;53.046;5.668;2022-12-16T13:00:23;101832.81;;;1.48;100.00
67099;BME280;54288;53.046;5.668;2022-12-16T13:03:29;101848.13;;;1.70;100.00
67099;BME280;54288;53.046;5.668;2022-12-16T13:06:18;101834.84;;;1.58;100.00
67099;BME280;54288;53.046;5.668;2022-12-16T13:09:25;101815.63;;;1.49;100.00
67099;BME280;54288;53.046;5.668;2022-12-16T13:20:43;101862.66;;;1.67;100.00
67099;BME280;54288;53.046;5.668;2022-12-16T13:23:38;101862.28;;;1.55;100.00
67099;BME280;54288;53.046;5.668;2022-12-16T13:26:27;101871.81;;;1.57;100.00
67099;BME280;54288;53.046;5.668;2022-12-16T13:29:24;101881.94;;;1.78;100.00
67099;BME280;54288;53.046;5.668;2022-12-16T13:35:04;101868.25;;;1.80;100.00
67099;BME280;54288;53.046;5.668;2022-12-16T13:37:55;101870.25;;;1.89;100.00
67099;BME280;54288;53.046;5.668;2022-12-16T13:47:01;101876.41;;;1.66;100.00
67099;BME280;54288;53.046;5.668;2022-12-16T13:49:50;101876.09;;;1.57;100.00
67099;BME280;54288;53.046;5.668;2022-12-16T13:55:29;101883.19;;;1.62;100.00
67099;BME280;54288;53.046;5.668;2022-12-16T13:58:31;101883.91;;;1.58;100.00
67099;BME280;54288;53.046;5.668;2022-12-16T14:04:30;101858.69;;;1.25;100.00
67099;BME280;54288;53.046;5.668;2022-12-16T14:07:17;101879.28;;;1.23;100.00
67099;BME280;54288;53.046;5.668;2022-12-16T14:10:04;101889.22;;;1.11;100.00
67099;BME280;54288;53.046;5.668;2022-12-16T14:16:24;101892.22;;;1.00;100.00
67099;BME280;54288;53.046;5.668;2022-12-16T14:25:56;101913.09;;;0.82;100.00
67099;BME280;54288;53.046;5.668;2022-12-16T14:28:45;101883.22;;;0.64;100.00
67099;BME280;54288;53.046;5.668;2022-12-16T14:31:37;101915.19;;;0.69;100.00
67099;BME280;54288;53.046;5.668;2022-12-16T14:37:34;101927.13;;;0.67;100.00
67099;BME280;54288;53.046;5.668;2022-12-16T14:40:27;101940.78;;;0.64;100.00
67099;BME280;54288;53.046;5.668;2022-12-16T14:43:15;101944.25;;;0.65;100.00
67099;BME280;54288;53.046;5.668;2022-12-16T14:46:01;101916.00;;;0.44;100.00
67099;BME280;54288;53.046;5.668;2022-12-16T14:48:48;101937.47;;;0.45;100.00
67099;BME280;54288;53.046;5.668;2022-12-16T14:51:35;101966.09;;;0.52;100.00
67099;BME280;54288;53.046;5.668;2022-12-16T15:00:14;101958.56;;;0.13;100.00
67099;BME280;54288;53.046;5.668;2022-12-16T15:03:26;101958.19;;;0.04;100.00
67099;BME280;54288;53.046;5.668;2022-12-16T15:06:26;101976.47;;;-0.11;100.00
67099;BME280;54288;53.046;5.668;2022-12-16T15:12:26;101955.47;;;-0.41;100.00
67099;BME280;54288;53.046;5.668;2022-12-16T15:15:28;101962.00;;;-0.49;100.00
67099;BME280;54288;53.046;5.668;2022-12-16T15:18:22;101947.06;;;-0.58;100.00
67099;BME280;54288;53.046;5.668;2022-12-16T15:21:11;101976.50;;;-0.51;100.00
67099;BME280;54288;53.046;5.668;2022-12-16T15:23:56;101965.63;;;-0.65;100.00
67099;BME280;54288;53.046;5.668;2022-12-16T15:26:43;101977.72;;;-0.62;100.00
67099;BME280;54288;53.046;5.668;2022-12-16T15:29:32;101993.31;;;-0.59;100.00
67099;BME280;54288;53.046;5.668;2022-12-16T15:41:00;101994.91;;;-1.01;100.00
67099;BME280;54288;53.046;5.668;2022-12-16T15:43:46;101991.31;;;-1.04;100.00
67099;BME280;54288;53.046;5.668;2022-12-16T15:46:32;101996.84;;;-0.95;100.00
67099;BME280;54288;53.046;5.668;2022-12-16T15:49:30;101969.16;;;-1.21;100.00
67099;BME280;54288;53.046;5.668;2022-12-16T15:55:31;101963.25;;;-1.19;100.00
67099;BME280;54288;53.046;5.668;2022-12-16T15:58:28;102010.09;;;-1.05;100.00
67099;BME280;54288;53.046;5.668;2022-12-16T16:01:24;101993.59;;;-1.29;100.00
67099;BME280;54288;53.046;5.668;2022-12-16T16:04:25;102024.97;;;-1.17;100.00
67099;BME280;54288;53.046;5.668;2022-12-16T16:07:23;102008.75;;;-1.35;100.00
67099;BME280;54288;53.046;5.668;2022-12-16T16:10:20;101999.75;;;-1.45;100.00
67099;BME280;54288;53.046;5.668;2022-12-16T16:13:09;102013.47;;;-1.44;100.00
67099;BME280;54288;53.046;5.668;2022-12-16T16:15:54;102031.94;;;-1.34;100.00
67099;BME280;54288;53.046;5.668;2022-12-16T16:18:40;102011.50;;;-1.50;100.00
67099;BME280;54288;53.046;5.668;2022-12-16T16:21:27;102023.78;;;-1.43;100.00
67099;BME280;54288;53.046;5.668;2022-12-16T16:24:13;102017.53;;;-1.49;100.00
67099;BME280;54288;53.046;5.668;2022-12-16T16:27:00;102015.53;;;-1.55;100.00
67099;BME280;54288;53.046;5.668;2022-12-16T16:29:45;102025.59;;;-1.59;100.00
67099;BME280;54288;53.046;5.668;2022-12-16T16:32:30;102050.81;;;-1.33;100.00
67099;BME280;54288;53.046;5.668;2022-12-16T16:35:14;102036.22;;;-1.52;100.00